Latest Coastal Weather Observations for Stenhouse Bay

IDS60701

Issued at 6:11 pm CST Monday 26 June 2017 (issued every 10 minutes, with the page automatically refreshed every 10 minutes)

About coastal observations | Map of coastal stations | Coastal observations for SA | Marine services | Other Formats
Station Details ID: 022049 Name: STENHOUSE BAY Lat: -35.28 Lon: 136.94 Height: 42.0 m
Data from the previous 72 hours. | See also: Recent months at Stenhouse Bay
Date/Time
CST
Temp
°C
Wind Pressure Rain since
9am
mm
Weather Cloud Vis
km
Sea
Height
m
Swell
Dir  Spd
kts
Gust
kts
hPa Trend Height
m
Period
s
Dir
26/06:00pm 11.8 NNW 3 4 1024.3 - 0.2 Recent precip. - - - - - -
26/05:30pm 12.1 N 3 5 1024.2 - 0.0 - - - - - - -
26/05:00pm 12.4 N 1 2 1023.9 - 0.0 - - - - - - -
26/04:30pm 13.1 ENE 1 2 1023.7 - 0.0 - - - - - - -
26/04:00pm 13.5 NNE 1 2 1023.8 - 0.0 - - - - - - -
26/03:30pm 13.2 NE 2 3 1024.0 - 0.0 - - - - - - -
26/03:00pm 14.2 NE 3 5 1023.8 - 0.0 - - - - - - -
26/02:30pm 14.1 NE 5 7 1023.8 - 0.0 - - - - - - -
26/02:00pm 14.2 NE 5 6 1024.0 - 0.0 - - - - - - -
26/01:30pm 13.8 NE 3 5 1024.5 - 0.0 - - - - - - -
26/01:00pm 13.1 ENE 4 5 1024.6 - 0.0 - - - - - - -
26/12:30pm 13.1 ENE 2 3 1024.8 - 0.0 - - - - - - -
26/12:00pm 13.5 E 4 6 1024.9 - 0.0 - - - - - - -
26/11:30am 14.2 E 5 6 1025.1 - 0.0 - - - - - - -
26/11:00am 13.6 ENE 4 5 1025.2 - 0.0 - - - - - - -
26/10:30am 13.5 NE 5 8 1025.4 - 0.0 - - - - - - -
26/10:00am 13.1 N 6 8 1025.3 - 0.0 - - - - - - -
26/09:30am 12.1 N 5 7 1025.2 - 0.0 - - - - - - -
26/09:00am 11.6 NNE 2 4 1024.9 - 5.8 Recent precip. - - - - - -
26/08:30am 11.1 ENE 3 4 1024.4 - 5.8 - - - - - - -
26/08:00am 10.9 SE 1 2 1024.2 - 5.6 - - - - - - -
26/07:30am 10.8 W 4 4 1024.1 - 5.6 - - - - - - -
26/07:00am 10.8 NW 2 3 1023.9 - 5.4 - - - - - - -
26/06:30am 11.2 NE 4 8 1023.6 - 5.4 - - - - - - -
26/06:00am 11.4 CALM 0 1 1023.3 - 4.4 - - - - - - -
26/05:30am 11.7 SE 5 7 1023.0 - 4.4 - - - - - - -
26/05:00am 11.3 CALM 0 2 1022.8 - 4.4 - - - - - - -
26/04:30am 11.2 S 1 2 1022.6 - 4.4 - - - - - - -
26/04:00am 11.5 S 9 12 1022.7 - 4.2 - - - - - - -
26/03:30am 11.9 S 3 3 1022.5 - 2.6 - - - - - - -
26/03:00am 12.3 SSW 9 13 1022.5 - 2.6 - - - - - - -
26/02:30am 12.0 S 8 10 1022.3 - 2.6 - - - - - - -
26/02:00am 12.0 S 5 8 1022.2 - 2.6 - - - - - - -
26/01:30am 12.1 SW 3 8 1022.2 - 2.6 - - - - - - -
26/01:00am 12.6 S 5 7 1022.0 - 1.8 - - - - - - -
26/12:30am 12.4 SSW 6 9 1022.1 - 1.8 - - - - - - -
26/12:00am 12.3 SSW 9 13 1022.0 - 1.8 - - - - - - -
 
Date/Time
CST
Temp
°C
Wind Pressure Rain since
9am
mm
Weather Cloud Vis
km
Sea
Height
m
Swell
Dir  Spd
kts
Gust
kts
hPa Trend Height
m
Period
s
Dir
25/11:30pm 12.5 SW 8 11 1022.2 - 1.8 - - - - - - -
25/11:00pm 12.7 SW 10 18 1022.2 - 1.8 - - - - - - -
25/10:30pm 13.0 SW 8 11 1022.0 - 1.6 - - - - - - -
25/10:00pm 12.5 SW 10 15 1021.9 - 1.6 - - - - - - -
25/09:30pm 12.0 SW 7 14 1021.9 - 1.6 - - - - - - -
25/09:00pm 12.0 SW 8 13 1021.8 - 1.2 - - - - - - -
25/08:30pm 10.6 W 7 8 1021.6 - 1.2 - - - - - - -
25/08:00pm 11.0 W 7 9 1021.4 - 1.2 - - - - - - -
25/07:30pm 11.5 W 8 11 1021.2 - 1.2 - - - - - - -
25/07:00pm 11.2 WSW 6 8 1021.0 - 1.0 - - - - - - -
25/06:30pm 12.4 SW 10 13 1020.8 - 1.0 - - - - - - -
25/06:00pm 12.1 SW 11 15 1020.6 - 1.0 Recent precip. - - - - - -
25/05:30pm 12.2 SW 12 19 1020.6 - 1.0 - - - - - - -
25/05:00pm 12.5 WNW 9 15 1020.5 - 0.0 - - - - - - -
25/04:30pm 13.7 WSW 9 13 1020.4 - 0.0 - - - - - - -
25/04:00pm 14.5 SW 12 16 1020.2 - 0.0 - - - - - - -
25/03:30pm 14.2 WSW 8 18 1020.1 - 0.0 - - - - - - -
25/03:00pm 13.5 SW 12 18 1020.0 - 0.0 - - - - - - -
25/02:30pm 16.3 WSW 10 16 1019.6 - 0.0 - - - - - - -
25/02:00pm 15.3 SW 11 16 1019.7 - 0.0 - - - - - - -
25/01:30pm 15.1 SW 11 16 1019.7 - 0.0 - - - - - - -
25/01:00pm 14.9 SW 13 19 1019.8 - 0.0 - - - - - - -
25/12:30pm 13.9 SW 13 18 1020.1 - 0.0 - - - - - - -
25/12:00pm 14.2 SW 13 19 1020.4 - 0.0 - - - - - - -
25/11:30am 13.4 SW 14 21 1020.6 - 0.0 - - - - - - -
25/11:00am 13.7 SW 14 19 1020.7 - 0.0 - - - - - - -
25/10:30am 13.5 SW 12 18 1020.5 - 0.0 - - - - - - -
25/10:00am 12.4 SW 7 12 1020.4 - 0.0 - - - - - - -
25/09:30am 11.9 WSW 10 14 1020.1 - 0.0 - - - - - - -
25/09:00am 11.9 SW 11 16 1019.7 - 2.0 Recent precip. - - - - - -
25/08:30am 11.3 SW 11 16 1019.5 - 2.0 - - - - - - -
25/08:00am 11.0 WSW 12 19 1019.4 - 1.8 - - - - - - -
25/07:30am 11.0 WSW 11 16 1019.2 - 1.6 - - - - - - -
25/07:00am 10.5 W 5 6 1019.0 - 1.0 - - - - - - -
25/06:30am 10.2 W 4 6 1018.5 - 0.8 - - - - - - -
25/06:00am 10.6 NW 2 2 1018.3 - 0.8 - - - - - - -
25/05:30am 10.4 WNW 2 3 1018.0 - 0.8 - - - - - - -
25/05:00am 10.5 NW 2 3 1018.0 - 0.8 - - - - - - -
25/04:30am 10.6 NW 3 6 1018.0 - 0.2 - - - - - - -
25/04:00am 11.6 ESE 2 3 1018.2 - 0.0 - - - - - - -
25/03:30am 11.7 ESE 3 4 1018.3 - 0.0 - - - - - - -
25/03:00am 11.6 E 1 2 1018.4 - 0.0 - - - - - - -
25/02:30am 11.5 ESE 2 3 1018.5 - 0.0 - - - - - - -
25/02:00am 11.7 ESE 3 4 1018.5 - 0.0 - - - - - - -
25/01:30am 11.8 SSE 4 6 1018.6 - 0.0 - - - - - - -
25/01:00am 11.3 SE 4 5 1018.7 - 0.0 - - - - - - -
25/12:30am 12.0 SE 4 5 1018.8 - 0.0 - - - - - - -
25/12:00am 11.8 SE 5 7 1018.9 - 0.0 - - - - - - -
 
Date/Time
CST
Temp
°C
Wind Pressure Rain since
9am
mm
Weather Cloud Vis
km
Sea
Height
m
Swell
Dir  Spd
kts
Gust
kts
hPa Trend Height
m
Period
s
Dir
24/11:30pm 11.7 SE 6 7 1019.0 - 0.0 - - - - - - -
24/11:00pm 11.7 SE 5 7 1018.9 - 0.0 - - - - - - -
24/10:30pm 11.5 SSW 2 5 1019.0 - 0.0 - - - - - - -
24/10:00pm 11.4 N 2 3 1018.8 - 0.0 - - - - - - -
24/09:30pm 12.5 CALM 0 2 1018.8 - 0.0 - - - - - - -
24/09:00pm 12.2 ESE 4 5 1019.0 - 0.0 - - - - - - -
24/08:30pm 12.7 SE 5 6 1019.0 - 0.0 - - - - - - -
24/08:00pm 13.2 SSE 5 8 1018.9 - 0.0 - - - - - - -
24/07:30pm 12.1 WSW 6 7 1018.9 - 0.0 - - - - - - -
24/07:00pm 12.4 WSW 5 7 1018.7 - 0.0 - - - - - - -
24/06:30pm 12.4 WSW 4 5 1018.6 - 0.0 - - - - - - -
24/06:00pm 12.1 WSW 4 5 1018.4 - 0.0 - - - - - - -
24/05:30pm 12.7 WSW 4 7 1018.3 - 0.0 - - - - - - -
24/05:00pm 13.8 WSW 4 5 1018.2 - 0.0 - - - - - - -
24/04:30pm 14.2 WSW 4 5 1018.3 - 0.0 - - - - - - -
24/04:00pm 14.4 SSW 4 5 1018.3 - 0.0 - - - - - - -
24/03:30pm 14.7 SSW 5 6 1018.3 - 0.0 - - - - - - -
24/03:00pm 14.8 SSW 5 7 1018.3 - 0.0 - - - - - - -
24/02:30pm 15.2 S 3 5 1018.2 - 0.0 - - - - - - -
24/02:00pm 14.9 SSE 3 4 1018.4 - 0.0 - - - - - - -
24/01:30pm 15.5 SE 4 5 1018.6 - 0.0 - - - - - - -
24/01:00pm 14.7 ESE 4 5 1018.9 - 0.0 - - - - - - -
24/12:30pm 15.2 E 5 7 1019.2 - 0.0 - - - - - - -
24/12:00pm 15.5 ESE 5 7 1019.6 - 0.0 - - - - - - -
24/11:30am 15.7 SE 4 6 1020.0 - 0.0 - - - - - - -
24/11:00am 16.1 E 4 7 1020.1 - 0.0 - - - - - - -
24/10:30am 14.9 ENE 3 3 1020.3 - 0.0 - - - - - - -
24/10:00am 15.3 NE 1 2 1020.5 - 0.0 - - - - - - -
24/09:30am 14.0 NNW 1 2 1020.1 - 0.0 - - - - - - -
24/09:00am 14.4 E 3 5 1020.0 - 1.0 - - - - - - -
24/08:30am 12.6 SE 5 6 1019.8 - 1.0 - - - - - - -
24/08:00am 12.5 SE 5 6 1019.6 - 1.0 - - - - - - -
24/07:30am 12.1 ESE 5 7 1019.4 - 1.0 - - - - - - -
24/07:00am 12.2 SE 6 7 1019.1 - 1.0 - - - - - - -
24/06:30am 12.6 SSE 6 8 1019.2 - 1.0 - - - - - - -
24/06:00am 13.4 SE 8 10 1019.0 - 0.0 - - - - - - -
24/05:30am 13.1 SE 7 9 1018.7 - 0.0 - - - - - - -
24/05:00am 13.1 SE 7 9 1018.6 - 0.0 - - - - - - -
24/04:30am 12.9 ESE 6 8 1018.7 - 0.0 - - - - - - -
24/04:00am 12.9 SE 6 8 1018.8 - 0.0 - - - - - - -
24/03:30am 13.3 SE 5 6 1018.9 - 0.0 - - - - - - -
24/03:00am 13.6 SE 5 7 1018.9 - 0.0 - - - - - - -
24/02:30am 13.4 SSE 6 8 1018.7 - 0.0 - - - - - - -
24/02:00am 13.4 SE 5 7 1018.7 - 0.0 - - - - - - -
24/01:30am 13.6 ESE 5 7 1018.8 - 0.0 - - - - - - -
24/01:00am 13.3 SE 6 8 1018.6 - 0.0 - - - - - - -
24/12:30am 13.3 SE 6 8 1018.6 - 0.0 - - - - - - -
24/12:00am 13.6 SE 7 8 1018.7 - 0.0 - - - - - - -
 
Date/Time
CST
Temp
°C
Wind Pressure Rain since
9am
mm
Weather Cloud Vis
km
Sea
Height
m
Swell
Dir  Spd
kts
Gust
kts
hPa Trend Height
m
Period
s
Dir
23/11:30pm 13.5 SE 7 9 1018.8 - 0.0 - - - - - - -
23/11:00pm 13.8 SE 7 10 1019.0 - 0.0 - - - - - - -
23/10:30pm 13.9 SE 8 11 1019.0 - 0.0 - - - - - - -
23/10:00pm 14.4 SSE 9 11 1018.8 - 0.0 - - - - - - -
23/09:30pm 14.3 SSE 8 10 1018.8 - 0.0 - - - - - - -
23/09:00pm 14.6 SSE 10 11 1018.6 - 0.0 - - - - - - -
23/08:30pm 14.3 SSW 4 8 1018.5 - 0.0 - - - - - - -
23/08:00pm 13.2 SW 4 5 1018.2 - 0.0 - - - - - - -
23/07:30pm 12.7 WSW 4 4 1017.9 - 0.0 - - - - - - -
23/07:00pm 12.5 W 2 3 1017.8 - 0.0 - - - - - - -
23/06:30pm 13.0 WSW 5 5 1017.4 - 0.0 - - - - - - -

Other Formats:

Comma delimited format used in spreadsheet applications
http://www.bom.gov.au/fwo/IDS60701/IDS60701.95806.axf

JavaScript Object Notation format (JSON) in row-major order
http://www.bom.gov.au/fwo/IDS60701/IDS60701.95806.json